Time;durP1;ratioP1;P1;durP2;ratioP2;P2;SDS_P1;SDS_P2;PMS_P1;PMS_P2;Temp;Humidity;BMP_temperature;BMP_pressure;BME280_temperature;BME280_humidity;BME280_pressure;Samples;Min_cycle;Max_cycle;Signal;HPM_P1;HPM_P2
2021/01/27 00:00:47;;;;;;;43.03;20.60;;;-1.70;99.90;;;;;;4174208;28;20627;-45
2021/01/27 00:02:48;;;;;;;37.77;18.87;;;-1.70;99.90;;;;;;4174943;28;20305;-48
2021/01/27 00:04:50;;;;;;;37.17;21.47;;;-1.70;99.90;;;;;;4175461;28;20286;-54
2021/01/27 00:06:51;;;;;;;43.10;23.13;;;-1.70;99.90;;;;;;4175256;28;20328;-46
2021/01/27 00:08:52;;;;;;;35.43;20.00;;;-1.70;99.90;;;;;;4175434;28;20320;-53
2021/01/27 00:10:53;;;;;;;36.67;18.07;;;-1.70;99.90;;;;;;4174982;28;20300;-48
2021/01/27 00:12:55;;;;;;;34.50;17.37;;;-1.70;99.90;;;;;;4175645;28;20270;-42
2021/01/27 00:14:56;;;;;;;30.07;16.33;;;-1.70;99.90;;;;;;4174500;28;20316;-47
2021/01/27 00:16:57;;;;;;;32.50;17.17;;;-1.80;99.90;;;;;;4175696;28;20689;-42
2021/01/27 00:18:58;;;;;;;36.47;16.90;;;-1.70;99.90;;;;;;4174067;28;20269;-46
2021/01/27 00:21:00;;;;;;;35.93;17.50;;;-1.70;99.90;;;;;;4175970;28;20808;-56
2021/01/27 00:23:01;;;;;;;30.20;14.87;;;-1.70;99.90;;;;;;4174860;28;21210;-49
2021/01/27 00:25:04;;;;;;;31.50;14.70;;;-1.70;99.90;;;;;;4174704;28;20286;-45
2021/01/27 00:27:05;;;;;;;36.37;16.57;;;-1.70;99.90;;;;;;4174076;28;21169;-44
2021/01/27 00:29:06;;;;;;;32.63;15.07;;;-1.70;99.90;;;;;;4174827;28;20270;-45
2021/01/27 00:31:07;;;;;;;31.27;14.07;;;-1.70;99.90;;;;;;4174621;28;20332;-51
2021/01/27 00:33:11;;;;;;;32.27;16.60;;;-1.70;99.90;;;;;;4174728;28;20336;-43
2021/01/27 00:35:13;;;;;;;31.60;15.23;;;-1.70;99.90;;;;;;4174616;28;20316;-46
2021/01/27 00:37:15;;;;;;;29.77;14.20;;;-1.80;99.90;;;;;;4174244;28;20266;-46
2021/01/27 00:39:16;;;;;;;35.00;15.10;;;-1.70;99.90;;;;;;4174447;28;20277;-50
2021/01/27 00:41:17;;;;;;;30.53;13.03;;;-1.80;99.90;;;;;;4174557;28;20746;-49
2021/01/27 00:43:19;;;;;;;35.47;15.10;;;-1.80;99.90;;;;;;4174315;28;20306;-45
2021/01/27 00:45:20;;;;;;;31.13;14.83;;;-1.80;99.90;;;;;;4173964;28;20363;-49
2021/01/27 00:47:22;;;;;;;34.83;14.73;;;-1.80;99.90;;;;;;4174864;28;20281;-47
2021/01/27 00:49:23;;;;;;;36.27;16.53;;;-1.80;99.90;;;;;;4174325;28;20327;-47
2021/01/27 00:51:26;;;;;;;36.27;14.73;;;-1.80;99.90;;;;;;4175189;28;20750;-42
2021/01/27 00:53:27;;;;;;;30.30;13.60;;;-1.80;99.90;;;;;;4173752;28;20290;-49
2021/01/27 00:55:30;;;;;;;29.97;14.20;;;-1.90;99.90;;;;;;4173276;28;20388;-46
2021/01/27 00:57:32;;;;;;;37.43;17.63;;;-1.90;99.90;;;;;;4173709;28;20270;-44
2021/01/27 00:59:33;;;;;;;33.40;15.03;;;-1.90;99.90;;;;;;4174457;28;20343;-53
2021/01/27 01:01:34;;;;;;;34.97;14.40;;;-1.80;99.90;;;;;;4173796;28;20270;-46
2021/01/27 01:03:36;;;;;;;30.43;14.97;;;-1.90;99.90;;;;;;4174682;28;20294;-57
2021/01/27 01:05:40;;;;;;;35.63;15.43;;;-1.90;99.90;;;;;;4174110;28;20340;-46
2021/01/27 01:07:47;;;;;;;31.07;15.23;;;-1.90;99.90;;;;;;4174051;28;20312;-43
2021/01/27 01:09:48;;;;;;;32.40;15.47;;;-1.90;99.90;;;;;;4174709;28;20270;-49
2021/01/27 01:11:49;;;;;;;34.97;16.57;;;-1.90;99.90;;;;;;4174334;28;20836;-55
2021/01/27 01:13:51;;;;;;;29.83;15.20;;;-1.90;99.90;;;;;;4172617;28;20270;-43
2021/01/27 01:15:52;;;;;;;33.60;16.47;;;-1.90;99.90;;;;;;4172053;28;20338;-48
2021/01/27 01:17:53;;;;;;;40.37;17.00;;;-1.90;99.90;;;;;;4173802;28;21075;-53
2021/01/27 01:19:55;;;;;;;37.13;17.07;;;-1.90;99.90;;;;;;4174037;28;20266;-44
2021/01/27 01:21:56;;;;;;;34.80;16.87;;;-2.00;99.90;;;;;;4174896;28;20277;-47
2021/01/27 01:23:57;;;;;;;33.00;15.13;;;-1.90;99.90;;;;;;4173593;28;20294;-44
2021/01/27 01:25:58;;;;;;;33.73;14.83;;;-2.00;99.90;;;;;;4174811;28;20274;-46
2021/01/27 01:28:00;;;;;;;40.47;17.53;;;-2.00;99.90;;;;;;4173712;28;20343;-49
2021/01/27 01:30:06;;;;;;;35.83;16.33;;;-2.00;99.90;;;;;;4174300;28;20282;-47
2021/01/27 01:32:07;;;;;;;37.70;14.93;;;-2.00;99.90;;;;;;4173624;28;20274;-39
2021/01/27 01:34:09;;;;;;;32.57;14.57;;;-2.00;99.90;;;;;;4174003;28;20282;-44
2021/01/27 01:36:10;;;;;;;32.67;15.67;;;-2.00;99.90;;;;;;4173466;28;20677;-52
2021/01/27 01:38:12;;;;;;;32.00;15.00;;;-2.00;99.90;;;;;;4173671;28;20262;-47
2021/01/27 01:40:18;;;;;;;41.80;15.77;;;-2.10;99.90;;;;;;4174222;28;20816;-50
2021/01/27 01:42:19;;;;;;;33.93;14.70;;;-2.00;99.90;;;;;;4173417;28;20261;-45
2021/01/27 01:44:21;;;;;;;29.40;14.47;;;-2.00;99.90;;;;;;4173951;28;20258;-45
2021/01/27 01:46:24;;;;;;;25.77;13.47;;;-2.00;99.90;;;;;;4173442;28;20641;-51
2021/01/27 01:48:33;;;;;;;27.43;13.67;;;-2.00;99.90;;;;;;4173434;28;20278;-49
2021/01/27 01:50:35;;;;;;;30.90;13.70;;;-2.10;99.90;;;;;;4173602;28;20320;-51
2021/01/27 01:52:36;;;;;;;30.27;15.37;;;-2.10;99.90;;;;;;4174540;28;20266;-48
2021/01/27 01:54:49;;;;;;;29.37;13.57;;;-2.10;99.90;;;;;;4173151;28;20285;-49
2021/01/27 01:56:59;;;;;;;26.37;13.67;;;-2.10;99.90;;;;;;4174022;28;20290;-44
2021/01/27 01:59:03;;;;;;;30.95;13.95;;;-2.10;99.90;;;;;;4173671;28;20301;-45
2021/01/27 02:01:05;;;;;;;26.57;13.13;;;-2.10;99.90;;;;;;4173602;28;20459;-51
2021/01/27 02:03:11;;;;;;;29.97;12.63;;;-2.10;99.90;;;;;;4173000;28;20293;-44
2021/01/27 02:05:20;;;;;;;29.80;12.63;;;-2.10;99.90;;;;;;4173979;28;20324;-43
2021/01/27 02:07:23;;;;;;;31.67;13.60;;;-2.10;99.90;;;;;;4172693;28;20278;-48
2021/01/27 02:09:24;;;;;;;32.67;14.27;;;-2.10;99.90;;;;;;4173811;28;20416;-45
2021/01/27 02:11:40;;;;;;;28.03;13.40;;;-2.10;99.90;;;;;;4171555;28;21036;-46
2021/01/27 02:14:19;;;;;;;27.20;12.90;;;-2.20;99.90;;;;;;4173464;28;20896;-46
2021/01/27 02:16:28;;;;;;;26.17;13.40;;;-2.10;99.90;;;;;;4172810;28;20274;-48
2021/01/27 02:19:01;;;;;;;26.77;13.37;;;-2.10;99.90;;;;;;4173458;28;20308;-49
2021/01/27 02:21:26;;;;;;;30.47;13.23;;;-2.10;99.90;;;;;;4167442;28;20278;-50
2021/01/27 02:23:36;;;;;;;25.03;12.47;;;-2.10;99.90;;;;;;4172651;28;20351;-49
2021/01/27 02:26:27;;;;;;;26.30;12.63;;;-2.10;99.90;;;;;;4172951;28;20281;-46
2021/01/27 02:28:50;;;;;;;25.30;12.07;;;-2.10;99.90;;;;;;4137197;28;20326;-46
2021/01/27 02:31:00;;;;;;;22.63;11.07;;;-2.10;99.90;;;;;;4167067;28;20277;-49
2021/01/27 02:33:23;;;;;;;25.92;12.65;;;-2.10;99.90;;;;;;4172451;28;20339;-50
2021/01/27 02:35:40;;;;;;;28.80;13.87;;;-2.10;99.90;;;;;;4173027;28;20017;-44
2021/01/27 02:37:48;;;;;;;31.07;14.80;;;-2.10;99.90;;;;;;4172375;28;20274;-44
2021/01/27 02:39:59;;;;;;;33.30;15.37;;;-2.10;99.90;;;;;;4172517;28;20274;-43
2021/01/27 02:42:22;;;;;;;30.33;14.75;;;-2.10;99.90;;;;;;4172610;28;20266;-47
2021/01/27 02:44:49;;;;;;;33.50;15.43;;;-2.10;99.90;;;;;;4173191;28;20532;-47
2021/01/27 02:46:53;;;;;;;29.38;13.48;;;-2.20;99.90;;;;;;4170989;28;20278;-45
2021/01/27 02:49:02;;;;;;;28.40;13.17;;;-2.20;99.90;;;;;;4173017;28;20408;-44
2021/01/27 02:51:15;;;;;;;25.00;12.23;;;-2.20;99.90;;;;;;4172931;28;20332;-44
2021/01/27 02:53:31;;;;;;;27.10;11.70;;;-2.20;99.90;;;;;;4172793;28;20258;-47
2021/01/27 02:55:40;;;;;;;25.30;12.30;;;-2.20;99.90;;;;;;4172785;28;20698;-50
2021/01/27 02:58:10;;;;;;;25.83;12.33;;;-2.20;99.90;;;;;;4173064;28;20304;-44
2021/01/27 03:00:26;;;;;;;26.37;11.77;;;-2.20;99.90;;;;;;4166877;28;20327;-47
2021/01/27 03:02:52;;;;;;;23.13;11.17;;;-2.20;99.90;;;;;;4172880;28;20278;-46
2021/01/27 03:05:12;;;;;;;24.67;10.60;;;-2.20;99.90;;;;;;4172867;28;20280;-50
2021/01/27 03:07:15;;;;;;;24.88;11.15;;;-2.20;99.90;;;;;;4172363;28;20336;-48
2021/01/27 03:09:29;;;;;;;21.97;10.30;;;-2.30;99.90;;;;;;4172781;28;20564;-48
2021/01/27 03:11:33;;;;;;;22.90;10.40;;;-2.20;99.90;;;;;;4172326;28;20278;-50
2021/01/27 03:13:36;;;;;;;19.83;9.57;;;-2.30;99.90;;;;;;4172230;28;20282;-57
2021/01/27 03:15:39;;;;;;;22.67;10.57;;;-2.30;99.90;;;;;;4172059;28;20327;-47
2021/01/27 03:17:42;;;;;;;19.47;9.73;;;-2.30;99.90;;;;;;4172526;28;20266;-46
2021/01/27 03:19:53;;;;;;;23.17;10.10;;;-2.30;99.90;;;;;;4172256;28;20271;-48
2021/01/27 03:21:59;;;;;;;21.47;9.77;;;-2.30;99.90;;;;;;4172449;28;20332;-44
2021/01/27 03:24:06;;;;;;;19.98;10.02;;;-2.30;99.90;;;;;;4171918;28;20364;-45
2021/01/27 03:26:20;;;;;;;25.27;10.10;;;-2.30;99.90;;;;;;4172078;28;20029;-47
2021/01/27 03:28:28;;;;;;;24.87;9.97;;;-2.30;99.90;;;;;;4172030;28;20266;-47
2021/01/27 03:30:31;;;;;;;27.65;11.77;;;-2.30;99.90;;;;;;4172278;28;20274;-47
2021/01/27 03:33:05;;;;;;;28.73;11.00;;;-2.30;99.90;;;;;;4171684;28;20025;-55
2021/01/27 03:35:06;;;;;;;24.27;10.83;;;-2.30;99.90;;;;;;4169606;28;20270;-48
2021/01/27 03:37:20;;;;;;;21.97;10.90;;;-2.30;99.90;;;;;;4172177;28;20665;-54
2021/01/27 03:39:26;;;;;;;20.93;10.57;;;-2.40;99.90;;;;;;4172426;28;20335;-46
2021/01/27 03:41:41;;;;;;;21.47;10.63;;;-2.30;99.90;;;;;;4171765;28;20282;-44
2021/01/27 03:44:07;;;;;;;25.50;11.63;;;-2.40;99.90;;;;;;4172394;28;20294;-53
2021/01/27 03:46:31;;;;;;;28.40;11.03;;;-2.40;99.90;;;;;;4171383;28;20815;-52
2021/01/27 03:48:38;;;;;;;25.53;11.73;;;-2.50;99.90;;;;;;4170032;28;20278;-45
2021/01/27 03:50:41;;;;;;;29.17;12.10;;;-2.40;99.90;;;;;;4171941;28;21075;-52
2021/01/27 03:52:50;;;;;;;26.10;11.97;;;-2.40;99.90;;;;;;4172391;28;20339;-48
2021/01/27 03:55:13;;;;;;;26.13;10.53;;;-2.50;99.90;;;;;;4171767;28;20312;-41
2021/01/27 03:57:27;;;;;;;23.20;10.20;;;-2.40;99.90;;;;;;4172836;28;20282;-48
2021/01/27 03:59:29;;;;;;;27.83;12.20;;;-2.50;99.90;;;;;;4171726;28;20812;-46
2021/01/27 04:01:31;;;;;;;20.93;9.87;;;-2.50;99.90;;;;;;4172667;28;20426;-42
2021/01/27 04:03:32;;;;;;;27.43;11.47;;;-2.50;99.90;;;;;;4171363;28;20789;-45
2021/01/27 04:05:34;;;;;;;25.17;11.40;;;-2.40;99.90;;;;;;4172424;28;20344;-42
2021/01/27 04:07:36;;;;;;;22.53;10.37;;;-2.50;99.90;;;;;;4171694;28;20327;-40
2021/01/27 04:09:37;;;;;;;24.53;11.23;;;-2.40;99.90;;;;;;4172150;28;20274;-48
2021/01/27 04:11:38;;;;;;;22.55;11.07;;;-2.50;99.90;;;;;;4171353;28;20331;-41
2021/01/27 04:13:40;;;;;;;24.53;11.93;;;-2.50;99.90;;;;;;4172142;28;20095;-45
2021/01/27 04:15:41;;;;;;;22.80;12.17;;;-2.50;99.90;;;;;;4171528;28;20721;-46
2021/01/27 04:17:43;;;;;;;28.33;14.20;;;-2.50;99.90;;;;;;4171483;28;20284;-51
2021/01/27 04:19:44;;;;;;;27.17;12.20;;;-2.50;99.90;;;;;;4171895;28;20647;-48
2021/01/27 04:21:45;;;;;;;27.02;11.82;;;-2.50;99.90;;;;;;4171697;28;20758;-46
2021/01/27 04:23:46;;;;;;;28.13;13.80;;;-2.50;99.90;;;;;;4172032;28;20087;-54
2021/01/27 04:25:48;;;;;;;28.13;15.50;;;-2.60;99.90;;;;;;4171462;28;20328;-43
2021/01/27 04:27:49;;;;;;;27.50;14.52;;;-2.60;99.90;;;;;;4171802;28;20282;-41
2021/01/27 04:29:51;;;;;;;31.70;14.40;;;-2.60;99.90;;;;;;4171338;28;20058;-42
2021/01/27 04:31:52;;;;;;;34.75;15.38;;;-2.60;99.90;;;;;;4172139;28;20423;-49
2021/01/27 04:33:53;;;;;;;31.00;14.17;;;-2.60;99.90;;;;;;4172943;28;20082;-43
2021/01/27 04:35:55;;;;;;;29.40;11.55;;;-2.60;99.90;;;;;;4175247;28;20275;-45
2021/01/27 04:37:56;;;;;;;60.38;23.85;;;-2.60;99.90;;;;;;4174637;28;20025;-44
2021/01/27 04:39:57;;;;;;;46.80;20.03;;;-2.60;99.90;;;;;;4174592;28;20029;-45
2021/01/27 04:41:58;;;;;;;41.30;18.73;;;-2.60;99.90;;;;;;4174250;28;20278;-41
2021/01/27 04:43:59;;;;;;;33.00;15.93;;;-2.60;99.90;;;;;;4174675;28;20302;-57
2021/01/27 04:46:21;;;;;;;49.90;20.97;;;-2.60;99.90;;;;;;4173499;28;20340;-47
2021/01/27 04:48:32;;;;;;;43.50;19.27;;;-2.60;99.90;;;;;;4174449;28;20278;-53
2021/01/27 04:50:46;;;;;;;41.63;18.02;;;-2.60;99.90;;;;;;4174338;28;20356;-47
2021/01/27 04:53:02;;;;;;;42.13;18.90;;;-2.60;99.90;;;;;;4174734;28;20091;-47
2021/01/27 04:55:15;;;;;;;35.42;15.52;;;-2.60;99.90;;;;;;4174604;28;20282;-44
2021/01/27 04:57:34;;;;;;;37.30;17.15;;;-2.60;99.90;;;;;;4174145;28;20033;-47
2021/01/27 04:59:56;;;;;;;27.45;12.93;;;-2.60;99.90;;;;;;4173784;28;20114;-44
2021/01/27 05:02:33;;;;;;;25.33;11.07;;;-2.60;99.90;;;;;;4173985;28;20079;-44
2021/01/27 05:04:48;;;;;;;26.57;12.53;;;-2.60;99.90;;;;;;4173633;28;20297;-42
2021/01/27 05:06:56;;;;;;;20.90;11.65;;;-2.60;99.90;;;;;;4174471;28;20272;-50
2021/01/27 05:09:05;;;;;;;24.45;12.05;;;-2.60;99.90;;;;;;4173852;28;20036;-47
2021/01/27 05:11:09;;;;;;;25.17;11.27;;;-2.60;99.90;;;;;;4174424;28;20079;-52
2021/01/27 05:13:30;;;;;;;24.87;11.90;;;-2.60;99.90;;;;;;4173752;28;20503;-50
2021/01/27 05:15:31;;;;;;;21.77;11.00;;;-2.50;99.90;;;;;;4174585;28;21317;-48
2021/01/27 05:17:32;;;;;;;22.03;11.97;;;-2.60;99.90;;;;;;4172836;28;20107;-48
2021/01/27 05:19:34;;;;;;;22.33;11.97;;;-2.60;99.90;;;;;;4174437;28;20335;-47
2021/01/27 05:21:43;;;;;;;25.87;11.53;;;-2.60;99.90;;;;;;4173399;28;20270;-54
2021/01/27 05:23:44;;;;;;;23.53;11.50;;;-2.60;99.90;;;;;;4173945;28;20344;-51
2021/01/27 05:26:05;;;;;;;23.85;11.30;;;-2.60;99.90;;;;;;4173387;28;20316;-43
2021/01/27 05:28:15;;;;;;;22.23;11.90;;;-2.60;99.90;;;;;;4174280;28;20052;-47
2021/01/27 05:30:33;;;;;;;21.23;10.90;;;-2.60;99.90;;;;;;4173055;28;20278;-47
2021/01/27 05:32:55;;;;;;;21.37;10.87;;;-2.50;99.90;;;;;;4174016;28;20028;-47
2021/01/27 05:34:57;;;;;;;22.17;9.70;;;-2.40;99.90;;;;;;4172638;28;20324;-42
2021/01/27 05:36:59;;;;;;;20.60;10.30;;;-2.40;99.90;;;;;;4174174;28;20270;-47
2021/01/27 05:39:12;;;;;;;19.30;8.70;;;-2.40;99.90;;;;;;4173137;28;20270;-44
2021/01/27 05:41:18;;;;;;;23.53;10.23;;;-2.30;99.90;;;;;;4174254;28;20762;-50
2021/01/27 05:43:25;;;;;;;23.37;10.90;;;-2.30;99.90;;;;;;4172185;28;20348;-51
2021/01/27 05:45:39;;;;;;;26.90;12.67;;;-2.30;99.90;;;;;;4172183;28;20302;-50
2021/01/27 05:47:40;;;;;;;26.83;12.00;;;-2.30;99.90;;;;;;4173046;28;20258;-47
2021/01/27 05:49:41;;;;;;;32.27;14.53;;;-2.40;99.90;;;;;;4174166;28;20320;-54
2021/01/27 05:51:42;;;;;;;28.77;13.53;;;-2.50;99.90;;;;;;4173617;28;20346;-43
2021/01/27 05:53:44;;;;;;;34.42;15.35;;;-2.60;99.90;;;;;;4173527;28;20297;-55
2021/01/27 05:56:02;;;;;;;34.78;15.05;;;-2.60;99.90;;;;;;4173071;28;20049;-52
2021/01/27 05:58:04;;;;;;;30.30;14.95;;;-2.60;99.90;;;;;;4174000;28;20049;-46
2021/01/27 06:00:13;;;;;;;30.77;13.93;;;-2.70;99.90;;;;;;4173142;28;20091;-42
2021/01/27 06:02:15;;;;;;;33.95;16.27;;;-2.70;99.90;;;;;;4173110;28;20290;-45
2021/01/27 06:04:18;;;;;;;37.13;16.73;;;-2.70;99.90;;;;;;4173029;28;20103;-49
2021/01/27 06:06:20;;;;;;;31.05;15.32;;;-2.70;99.90;;;;;;4172951;28;20724;-45
2021/01/27 06:08:23;;;;;;;34.78;14.13;;;-2.70;99.90;;;;;;4173279;28;20106;-46
2021/01/27 06:10:34;;;;;;;34.30;14.13;;;-2.70;99.90;;;;;;4172723;28;20075;-50
2021/01/27 06:12:35;;;;;;;29.08;13.15;;;-2.70;99.90;;;;;;4172954;28;20266;-45
2021/01/27 06:14:37;;;;;;;35.53;15.30;;;-2.70;99.90;;;;;;4173647;28;20037;-43
2021/01/27 06:16:43;;;;;;;32.00;14.43;;;-2.70;99.90;;;;;;4172645;28;20532;-47
2021/01/27 06:18:44;;;;;;;31.65;13.98;;;-2.70;99.90;;;;;;4172392;28;20037;-55
2021/01/27 06:20:46;;;;;;;33.87;14.80;;;-2.70;99.90;;;;;;4173004;28;20036;-43
2021/01/27 06:22:55;;;;;;;30.60;14.43;;;-2.70;99.90;;;;;;4172852;28;20661;-48
2021/01/27 06:25:22;;;;;;;33.78;14.82;;;-2.70;99.90;;;;;;4172762;28;20118;-41
2021/01/27 06:27:42;;;;;;;41.42;16.77;;;-2.70;99.90;;;;;;4172887;28;20037;-45
2021/01/27 06:30:01;;;;;;;35.30;15.45;;;-2.70;99.90;;;;;;4172456;28;20044;-46
2021/01/27 06:32:17;;;;;;;40.75;16.50;;;-2.70;99.90;;;;;;4171869;28;20083;-45
2021/01/27 06:34:36;;;;;;;37.15;15.73;;;-2.60;99.90;;;;;;4172664;28;20045;-45
2021/01/27 06:36:55;;;;;;;30.38;14.60;;;-2.60;99.90;;;;;;4172272;28;20059;-42
2021/01/27 06:39:15;;;;;;;40.77;17.53;;;-2.50;99.90;;;;;;4168902;28;20044;-41
2021/01/27 06:41:34;;;;;;;28.23;12.27;;;-2.50;99.90;;;;;;4173025;28;21118;-48
2021/01/27 06:43:47;;;;;;;25.02;12.25;;;-2.40;99.90;;;;;;4170704;28;20091;-55
2021/01/27 06:46:13;;;;;;;33.95;13.25;;;-2.40;99.90;;;;;;4172703;28;20032;-42
2021/01/27 06:48:27;;;;;;;29.88;14.02;;;-2.40;99.90;;;;;;4172782;28;20142;-47
2021/01/27 06:50:34;;;;;;;31.10;13.80;;;-2.40;99.90;;;;;;4173225;28;20347;-51
2021/01/27 06:52:50;;;;;;;35.28;15.13;;;-2.40;99.90;;;;;;4172076;28;20343;-50
2021/01/27 06:55:10;;;;;;;39.47;16.47;;;-2.40;99.90;;;;;;4172960;28;20095;-45
2021/01/27 06:57:36;;;;;;;45.10;17.88;;;-2.40;99.90;;;;;;4172306;28;20332;-57
2021/01/27 06:59:52;;;;;;;46.13;20.17;;;-2.30;99.90;;;;;;4172888;28;20041;-42
2021/01/27 07:02:02;;;;;;;41.00;18.60;;;-2.30;99.90;;;;;;4172372;28;20328;-48
2021/01/27 07:04:30;;;;;;;38.10;16.97;;;-2.30;99.90;;;;;;4172904;28;20049;-45
2021/01/27 07:07:23;;;;;;;29.27;13.63;;;-2.30;99.90;;;;;;4171310;28;20328;-51
2021/01/27 07:10:05;;;;;;;27.33;12.10;;;-2.20;99.90;;;;;;4168828;28;20103;-41
2021/01/27 07:12:10;;;;;;;25.13;11.70;;;-2.20;99.90;;;;;;4133262;28;20279;-45
2021/01/27 07:14:35;;;;;;;32.17;12.67;;;-2.10;99.90;;;;;;4156210;28;20282;-43
2021/01/27 07:16:46;;;;;;;25.10;13.03;;;-2.00;99.90;;;;;;4166208;28;20611;-38
2021/01/27 07:19:20;;;;;;;31.30;13.80;;;-2.00;99.90;;;;;;4168242;28;20348;-44
2021/01/27 07:21:57;;;;;;;30.40;14.10;;;-1.90;99.90;;;;;;4168548;28;20323;-42
2021/01/27 07:24:13;;;;;;;33.27;15.83;;;-1.80;99.90;;;;;;4151459;28;20298;-52
2021/01/27 07:26:25;;;;;;;41.23;17.67;;;-1.70;99.90;;;;;;4172043;28;20735;-44
2021/01/27 07:28:49;;;;;;;40.40;18.43;;;-1.70;99.90;;;;;;4172143;28;20274;-45
2021/01/27 07:31:13;;;;;;;34.97;16.63;;;-1.60;99.90;;;;;;4171887;28;20262;-46
2021/01/27 07:33:22;;;;;;;33.60;15.73;;;-1.50;99.90;;;;;;4172573;28;20278;-42
2021/01/27 07:35:38;;;;;;;38.77;18.03;;;-1.50;99.90;;;;;;4171720;28;20316;-45
2021/01/27 07:37:45;;;;;;;38.23;17.40;;;-1.40;99.90;;;;;;4169788;28;20277;-41
2021/01/27 07:40:11;;;;;;;42.30;18.50;;;-1.40;99.90;;;;;;4172146;28;20328;-38
2021/01/27 07:42:21;;;;;;;40.37;18.10;;;-1.40;99.90;;;;;;4172316;28;20698;-45
2021/01/27 07:44:23;;;;;;;41.47;19.48;;;-1.30;99.90;;;;;;4171833;28;20314;-42
2021/01/27 07:46:37;;;;;;;34.13;16.60;;;-1.20;99.90;;;;;;4172405;28;20928;-38
2021/01/27 07:48:51;;;;;;;32.97;16.70;;;-1.10;99.90;;;;;;4172877;28;20262;-40
2021/01/27 07:51:21;;;;;;;38.97;17.40;;;-1.00;99.90;;;;;;4172324;28;20312;-43
2021/01/27 07:53:38;;;;;;;35.75;17.20;;;-1.00;99.90;;;;;;4166863;28;20270;-39
2021/01/27 07:56:16;;;;;;;32.23;16.57;;;-0.80;99.90;;;;;;4160241;28;20087;-40
2021/01/27 07:58:31;;;;;;;32.90;15.10;;;-0.70;99.90;;;;;;4169960;28;20324;-42
2021/01/27 08:00:57;;;;;;;31.13;15.13;;;-0.60;99.90;;;;;;4172078;28;20745;-43
2021/01/27 08:03:29;;;;;;;47.53;14.23;;;-0.60;99.90;;;;;;4171792;28;20258;-40
2021/01/27 08:05:38;;;;;;;28.87;14.63;;;-0.60;99.90;;;;;;4169685;28;20302;-44
2021/01/27 08:07:43;;;;;;;42.47;20.37;;;-0.60;99.90;;;;;;4171670;28;20323;-41
2021/01/27 08:09:45;;;;;;;38.70;19.07;;;-0.50;99.90;;;;;;4173790;28;20304;-41
2021/01/27 08:11:46;;;;;;;29.93;15.20;;;-0.40;99.90;;;;;;4175162;28;21124;-44
2021/01/27 08:13:48;;;;;;;31.33;14.57;;;-0.30;99.90;;;;;;4174998;28;20943;-46
2021/01/27 08:16:07;;;;;;;28.10;15.40;;;-0.20;99.90;;;;;;4174733;28;20419;-43
2021/01/27 08:18:17;;;;;;;28.17;13.50;;;0.00;99.90;;;;;;4175110;28;20336;-39
2021/01/27 08:20:37;;;;;;;33.07;14.87;;;0.00;99.90;;;;;;4175021;28;20266;-37
2021/01/27 08:23:11;;;;;;;27.13;13.23;;;0.20;99.90;;;;;;4175295;28;20713;-42
2021/01/27 08:25:47;;;;;;;26.40;13.30;;;0.40;99.90;;;;;;4163068;28;20372;-44
2021/01/27 08:28:20;;;;;;;24.17;11.70;;;0.50;99.90;;;;;;4174331;28;20269;-43
2021/01/27 08:30:23;;;;;;;23.87;12.90;;;0.50;99.90;;;;;;4174819;28;20316;-43
2021/01/27 08:32:32;;;;;;;26.67;11.70;;;0.60;99.90;;;;;;4174414;28;20320;-44
2021/01/27 08:34:44;;;;;;;23.40;10.90;;;0.60;99.90;;;;;;4175099;28;20293;-45
2021/01/27 08:36:50;;;;;;;15.47;6.87;;;0.50;99.90;;;;;;4174436;28;20278;-45
2021/01/27 08:38:57;;;;;;;16.13;6.50;;;0.50;99.90;;;;;;4174498;28;20786;-41
2021/01/27 08:40:59;;;;;;;13.77;6.50;;;0.50;99.90;;;;;;4173665;28;20344;-45
2021/01/27 08:43:13;;;;;;;12.43;6.07;;;0.50;99.90;;;;;;4174708;28;21083;-40
2021/01/27 08:45:23;;;;;;;12.03;5.90;;;0.60;99.90;;;;;;4173492;28;20301;-47
2021/01/27 08:47:37;;;;;;;31.67;5.55;;;0.60;99.90;;;;;;4174756;28;20883;-45
2021/01/27 08:49:58;;;;;;;8.80;4.47;;;0.70;99.90;;;;;;4173779;28;20041;-46
2021/01/27 08:51:59;;;;;;;8.50;4.57;;;0.80;99.90;;;;;;4174791;28;20270;-43
2021/01/27 08:54:01;;;;;;;13.30;5.70;;;0.90;99.90;;;;;;4174276;28;20354;-48
2021/01/27 08:56:04;;;;;;;8.60;5.07;;;1.00;99.90;;;;;;4174593;28;20273;-43
2021/01/27 08:58:31;;;;;;;9.60;4.63;;;1.10;99.90;;;;;;4173899;28;20266;-46
2021/01/27 09:00:32;;;;;;;13.37;5.30;;;1.10;99.90;;;;;;4174938;28;20767;-46
2021/01/27 09:03:03;;;;;;;12.90;5.00;;;1.00;99.90;;;;;;4174127;28;20270;-44
2021/01/27 09:05:24;;;;;;;12.18;4.70;;;1.00;99.90;;;;;;4170560;28;20704;-45
2021/01/27 09:07:26;;;;;;;11.00;5.07;;;0.90;99.90;;;;;;4166839;28;20041;-40
2021/01/27 09:09:36;;;;;;;10.83;4.60;;;0.90;99.90;;;;;;4174455;28;20305;-39
2021/01/27 09:11:37;;;;;;;14.82;5.00;;;1.00;99.90;;;;;;4174033;28;20618;-39
2021/01/27 09:13:45;;;;;;;8.13;4.30;;;1.00;99.90;;;;;;4174025;28;20041;-48
2021/01/27 09:15:54;;;;;;;13.07;4.60;;;1.20;99.90;;;;;;4174102;28;20266;-45
2021/01/27 09:17:57;;;;;;;8.60;4.68;;;1.20;99.90;;;;;;4174461;28;20270;-40
2021/01/27 09:20:00;;;;;;;13.13;5.60;;;1.30;99.90;;;;;;4174205;28;20079;-40
2021/01/27 09:22:24;;;;;;;12.70;4.93;;;1.30;99.90;;;;;;4174576;28;20304;-37
2021/01/27 09:24:41;;;;;;;15.70;5.87;;;1.60;99.90;;;;;;4174311;28;20298;-38
2021/01/27 09:26:46;;;;;;;12.77;4.87;;;1.60;99.90;;;;;;4157597;28;20255;-39
2021/01/27 09:28:48;;;;;;;9.10;4.17;;;1.70;99.90;;;;;;4157288;28;20325;-40
2021/01/27 09:30:51;;;;;;;10.03;4.50;;;1.80;99.90;;;;;;4157607;28;20808;-41
2021/01/27 09:33:10;;;;;;;12.57;4.77;;;1.80;99.90;;;;;;4156666;28;20274;-40
2021/01/27 09:35:16;;;;;;;13.07;5.30;;;1.80;99.90;;;;;;4157334;28;20681;-43
2021/01/27 09:37:21;;;;;;;17.93;5.17;;;1.80;99.90;;;;;;4159635;28;20336;-39
2021/01/27 09:39:25;;;;;;;9.67;4.00;;;1.80;99.90;;;;;;4173850;28;20347;-44
2021/01/27 09:41:31;;;;;;;10.93;5.30;;;1.80;99.90;;;;;;4172932;28;20277;-43
2021/01/27 09:43:40;;;;;;;10.57;4.53;;;1.90;99.90;;;;;;4173917;28;20785;-41
2021/01/27 09:45:44;;;;;;;8.77;4.40;;;1.70;99.90;;;;;;4172718;28;20340;-44
2021/01/27 09:47:49;;;;;;;12.10;5.23;;;1.70;99.90;;;;;;4173895;28;20272;-47
2021/01/27 09:49:53;;;;;;;18.83;8.37;;;1.70;99.90;;;;;;4171065;28;20297;-39
2021/01/27 09:51:55;;;;;;;20.23;6.03;;;1.80;99.90;;;;;;4173270;28;20270;-44
2021/01/27 09:53:58;;;;;;;15.27;4.83;;;1.70;99.90;;;;;;4171882;28;20328;-45
2021/01/27 09:56:00;;;;;;;11.33;6.10;;;1.80;99.90;;;;;;4173777;28;20347;-43
2021/01/27 09:58:05;;;;;;;15.07;5.73;;;1.80;99.90;;;;;;4171683;28;20315;-39
2021/01/27 10:00:11;;;;;;;23.20;5.40;;;1.80;99.90;;;;;;4171448;28;20274;-46
2021/01/27 10:02:12;;;;;;;10.93;5.37;;;1.80;99.80;;;;;;4173189;28;20254;-44
2021/01/27 10:04:16;;;;;;;7.73;3.83;;;1.70;99.80;;;;;;4173119;28;20266;-36
2021/01/27 10:06:41;;;;;;;16.87;8.93;;;1.60;99.70;;;;;;4173027;28;20270;-38
2021/01/27 10:08:42;;;;;;;16.63;10.50;;;1.50;99.50;;;;;;4172925;28;20266;-36
2021/01/27 10:10:44;;;;;;;22.13;7.77;;;1.40;99.40;;;;;;4171524;28;20810;-40
2021/01/27 10:12:46;;;;;;;14.23;6.40;;;1.40;99.80;;;;;;4172622;28;20387;-38
2021/01/27 10:14:48;;;;;;;9.33;4.10;;;1.50;99.90;;;;;;4172673;28;20270;-37
2021/01/27 10:16:59;;;;;;;14.33;5.40;;;1.50;99.70;;;;;;4171522;28;20348;-37
2021/01/27 10:19:08;;;;;;;6.90;3.73;;;1.50;99.20;;;;;;4173561;28;20262;-35
2021/01/27 10:21:14;;;;;;;7.57;3.53;;;1.50;98.70;;;;;;4173232;28;20331;-39
2021/01/27 10:23:38;;;;;;;9.97;4.73;;;1.40;98.80;;;;;;4173773;28;20391;-39
2021/01/27 10:25:41;;;;;;;12.47;5.30;;;1.50;98.60;;;;;;4172814;28;20752;-40
2021/01/27 10:27:45;;;;;;;14.30;4.77;;;1.50;99.10;;;;;;4172952;28;20769;-40
2021/01/27 10:29:46;;;;;;;16.23;5.70;;;1.40;98.10;;;;;;4172720;28;20348;-46
2021/01/27 10:31:53;;;;;;;12.90;6.20;;;1.40;99.10;;;;;;4171864;28;20270;-39
2021/01/27 10:33:55;;;;;;;12.77;4.40;;;1.50;99.30;;;;;;4156914;28;20287;-43
2021/01/27 10:35:56;;;;;;;11.67;4.67;;;1.60;99.00;;;;;;4156529;28;20266;-40
2021/01/27 10:38:08;;;;;;;10.03;3.60;;;1.60;98.50;;;;;;4155876;28;20628;-53
2021/01/27 10:40:12;;;;;;;11.90;4.70;;;1.70;97.70;;;;;;4168818;28;20335;-41
2021/01/27 10:42:13;;;;;;;12.77;4.13;;;1.70;97.30;;;;;;4171771;28;20758;-41
2021/01/27 10:44:30;;;;;;;7.43;4.17;;;1.70;97.20;;;;;;4172881;28;20340;-46
2021/01/27 10:46:34;;;;;;;6.50;3.50;;;1.70;96.60;;;;;;4171875;28;20662;-44
2021/01/27 10:48:36;;;;;;;8.87;4.03;;;1.70;96.70;;;;;;4172608;28;20677;-42
2021/01/27 10:50:44;;;;;;;14.80;4.80;;;1.70;96.60;;;;;;4172005;28;20278;-38
2021/01/27 10:52:45;;;;;;;6.83;3.17;;;1.70;96.90;;;;;;4172899;28;20274;-42
2021/01/27 10:54:48;;;;;;;6.30;3.17;;;1.80;96.10;;;;;;4171624;28;20274;-36
2021/01/27 10:56:54;;;;;;;7.37;4.00;;;1.70;95.90;;;;;;4172894;28;20278;-43
2021/01/27 10:58:55;;;;;;;15.40;4.00;;;1.70;95.10;;;;;;4171413;28;20355;-37
2021/01/27 11:00:56;;;;;;;6.60;3.30;;;1.80;95.80;;;;;;4172239;28;20837;-50